Delta Virtual Airport Information Service

Hanoi Noi Bai International Airport

ICAO: VVNB Country: Vietnam
Latitude: 21.2212 Longitude: 105.807
Latest Arrival : DAC027 (GMMN-VVNB) Latest Departure : HVN426 (VVNB-RKPK)


WX CaptureLIVE
Data provided by noaa.gov | Fetched at 00:25:32

METAR : VVNB 120300Z 17006KT 9999 SCT019 BKN022 31/27 Q1006 NOSIG

TAF : VVNB 112300Z 1200/1224 08006KT 6000 FEW025 TEMPO 1209/1214 4000 TSRA SCT015 FEW027CB


Runway Data for VVNB
Data provided by openaviationdata.com

Runway ID Mag Var Hdg Length Elevation Surface ILS Freq ILS Id ILS Slope
11L -1 108° 10500 ft 40 ft Concrete 110.5 NB 3
29R -1 288° 10500 ft 40 ft Concrete -- -- --

Hanoi Noi Bai International Airport, Vietnam
Use only for reference purposes



Not for navigational purposes.